Time;durP1;ratioP1;P1;durP2;ratioP2;P2;SDS_P1;SDS_P2;PMS_P1;PMS_P2;Temp;Humidity;BMP_temperature;BMP_pressure;BME280_temperature;BME280_humidity;BME280_pressure;Samples;Min_cycle;Max_cycle;Signal;HPM_P1;HPM_P2
2022/03/03 00:01:55;;;;;;;51.90;31.73;;;2.20;99.90;;;;;;4970633;28;20080;-69
2022/03/03 00:04:25;;;;;;;49.13;29.57;;;2.20;99.90;;;;;;4969128;28;20039;-68
2022/03/03 00:06:54;;;;;;;53.38;34.08;;;2.10;99.90;;;;;;4973084;28;20252;-69
2022/03/03 00:09:27;;;;;;;57.58;32.88;;;2.10;99.90;;;;;;4973087;28;20042;-70
2022/03/03 00:12:11;;;;;;;44.67;29.48;;;2.10;99.90;;;;;;4974100;28;20030;-70
2022/03/03 00:14:46;;;;;;;46.38;28.42;;;2.00;99.90;;;;;;4957437;28;20039;-70
2022/03/03 00:17:23;;;;;;;47.08;29.23;;;2.00;99.90;;;;;;4975443;28;20669;-70
2022/03/03 00:19:49;;;;;;;44.90;27.90;;;1.90;99.90;;;;;;4974722;28;20067;-68
2022/03/03 00:22:24;;;;;;;46.28;28.23;;;1.90;99.90;;;;;;4975738;28;20054;-70
2022/03/03 00:24:53;;;;;;;53.15;31.38;;;1.90;99.90;;;;;;4974428;28;20034;-69
2022/03/03 00:27:51;;;;;;;55.10;30.40;;;1.80;99.90;;;;;;4975740;28;20050;-70
2022/03/03 00:30:17;;;;;;;52.53;30.58;;;1.80;99.90;;;;;;4974448;28;20070;-69
2022/03/03 00:32:43;;;;;;;49.90;30.48;;;1.80;99.90;;;;;;4975824;28;20026;-69
2022/03/03 00:35:11;;;;;;;46.58;31.08;;;1.70;99.90;;;;;;4976030;28;20058;-69
2022/03/03 00:37:44;;;;;;;45.40;26.70;;;1.70;99.90;;;;;;4975732;28;20156;-70
2022/03/03 00:40:12;;;;;;;40.90;26.10;;;1.70;99.90;;;;;;4974534;28;20081;-70
2022/03/03 00:42:44;;;;;;;40.30;25.73;;;1.70;99.90;;;;;;4974129;28;20067;-69
2022/03/03 00:45:10;;;;;;;40.08;23.90;;;1.60;99.90;;;;;;4974270;28;20079;-69
2022/03/03 00:47:39;;;;;;;35.67;22.88;;;1.60;99.90;;;;;;4957840;28;20069;-69
2022/03/03 00:50:06;;;;;;;41.33;24.92;;;1.60;99.90;;;;;;4974588;28;20037;-69
2022/03/03 00:52:31;;;;;;;40.00;25.08;;;1.60;99.90;;;;;;4975429;28;20489;-68
2022/03/03 00:55:07;;;;;;;35.90;23.65;;;1.60;99.90;;;;;;4975496;28;20058;-69
2022/03/03 00:57:36;;;;;;;36.33;23.70;;;1.50;99.90;;;;;;4958141;28;20053;-69
2022/03/03 01:00:05;;;;;;;46.08;27.90;;;1.60;99.90;;;;;;4975480;28;20477;-68
2022/03/03 01:02:39;;;;;;;42.55;26.55;;;1.50;99.90;;;;;;4959192;28;20034;-69
2022/03/03 01:05:09;;;;;;;39.05;25.02;;;1.50;99.90;;;;;;4973875;28;20031;-69
2022/03/03 01:07:35;;;;;;;41.58;24.90;;;1.50;99.90;;;;;;4974232;28;20037;-69
2022/03/03 01:10:11;;;;;;;44.45;26.02;;;1.40;99.90;;;;;;4974759;28;20042;-69
2022/03/03 01:13:04;;;;;;;42.47;27.95;;;1.40;99.90;;;;;;4974188;28;20109;-68
2022/03/03 01:15:33;;;;;;;41.15;23.90;;;1.40;99.90;;;;;;4975045;28;20108;-69
2022/03/03 01:18:09;;;;;;;42.05;24.88;;;1.30;99.90;;;;;;4973085;28;20492;-68
2022/03/03 01:20:35;;;;;;;;;;;1.30;99.90;;;;;;4973817;28;20038;-68
2022/03/03 01:23:01;;;;;;;35.13;21.48;;;1.40;99.90;;;;;;4975123;28;19910;-68
2022/03/03 01:25:46;;;;;;;40.08;23.77;;;1.30;99.90;;;;;;4975169;28;20033;-68
2022/03/03 01:28:39;;;;;;;39.50;23.48;;;1.30;99.90;;;;;;4973309;28;20041;-68
2022/03/03 01:31:55;;;;;;;32.20;21.63;;;1.20;99.90;;;;;;4973696;28;20110;-68
2022/03/03 01:34:22;;;;;;;38.80;22.27;;;1.20;99.90;;;;;;4973475;28;20069;-69
2022/03/03 01:36:47;;;;;;;38.63;23.88;;;1.20;99.90;;;;;;4974833;28;20059;-68
2022/03/03 01:39:13;;;;;;;40.13;24.35;;;1.10;99.90;;;;;;4973965;28;20120;-68
2022/03/03 01:41:41;;;;;;;43.67;24.98;;;1.20;99.90;;;;;;4974545;28;20029;-68
2022/03/03 01:44:08;;;;;;;34.45;21.67;;;1.10;99.90;;;;;;4973025;28;20138;-69
2022/03/03 01:46:57;;;;;;;41.47;23.15;;;1.10;99.90;;;;;;4974585;28;20022;-68
2022/03/03 01:49:30;;;;;;;40.22;23.70;;;1.10;99.90;;;;;;4956775;28;20047;-68
2022/03/03 01:51:56;;;;;;;37.65;22.55;;;1.10;99.90;;;;;;4953272;28;20116;-68
2022/03/03 01:54:34;;;;;;;38.47;23.10;;;1.10;99.90;;;;;;4954620;28;20094;-69
2022/03/03 01:57:15;;;;;;;36.65;23.27;;;1.10;99.90;;;;;;4970106;28;20400;-69
2022/03/03 01:59:47;;;;;;;37.75;22.13;;;1.10;99.90;;;;;;4953747;28;20031;-69
2022/03/03 02:02:50;;;;;;;36.72;21.98;;;1.10;99.90;;;;;;4954473;29;20114;-68
2022/03/03 02:05:43;;;;;;;38.67;22.40;;;1.10;99.90;;;;;;4974733;28;20147;-68
2022/03/03 02:08:37;;;;;;;38.50;22.52;;;1.10;99.90;;;;;;4973317;28;20038;-68
2022/03/03 02:11:05;;;;;;;36.85;22.85;;;1.10;99.90;;;;;;4972362;28;20046;-68
2022/03/03 02:13:54;;;;;;;34.80;23.02;;;1.10;99.90;;;;;;4988933;28;20589;-69
2022/03/03 02:16:43;;;;;;;38.17;23.13;;;1.00;99.90;;;;;;4974500;28;20046;-71
2022/03/03 02:19:21;;;;;;;40.20;24.10;;;1.00;99.90;;;;;;4974892;28;20073;-68
2022/03/03 02:25:43;;;;;;;36.22;22.95;;;1.00;99.90;;;;;;4898071;29;20044;-70
2022/03/03 02:28:32;;;;;;;37.58;25.70;;;1.00;99.90;;;;;;4913780;29;20040;-67
2022/03/03 02:31:01;;;;;;;38.40;24.05;;;1.00;99.90;;;;;;4897941;29;20055;-69
2022/03/03 02:33:30;;;;;;;38.42;23.02;;;1.00;99.90;;;;;;4913869;29;20379;-68
2022/03/03 02:36:27;;;;;;;39.00;22.85;;;1.00;99.90;;;;;;4897650;29;20515;-68
2022/03/03 02:38:59;;;;;;;35.22;23.00;;;1.00;99.90;;;;;;4913564;29;20028;-69
2022/03/03 02:41:25;;;;;;;39.15;22.33;;;1.00;99.90;;;;;;4913411;29;20139;-68
2022/03/03 02:44:05;;;;;;;36.60;22.48;;;1.00;99.90;;;;;;4913557;29;20032;-68
2022/03/03 02:46:43;;;;;;;34.53;22.33;;;1.00;99.90;;;;;;4879117;29;20048;-69
2022/03/03 02:49:15;;;;;;;35.85;22.38;;;1.00;99.90;;;;;;4879104;29;20091;-68
2022/03/03 02:51:41;;;;;;;39.07;23.03;;;1.00;99.90;;;;;;4863135;29;20072;-67
2022/03/03 02:54:16;;;;;;;34.15;20.42;;;1.00;99.90;;;;;;4894691;29;20359;-68
2022/03/03 02:59:30;;;;;;;36.78;20.48;;;1.10;99.90;;;;;;4878640;29;20036;-68
2022/03/03 03:01:59;;;;;;;37.40;21.35;;;1.10;99.90;;;;;;4925987;28;20123;-70
2022/03/03 03:04:27;;;;;;;34.15;21.55;;;1.20;99.90;;;;;;4973340;28;20044;-68
2022/03/03 03:07:03;;;;;;;36.33;22.00;;;1.20;99.90;;;;;;4956051;28;20050;-69
2022/03/03 03:09:39;;;;;;;31.90;21.13;;;1.20;99.90;;;;;;4973149;28;20047;-68
2022/03/03 03:13:14;;;;;;;;;;;;;;;;;;;;;
2022/03/03 03:16:46;;;;;;;39.65;21.65;;;1.30;99.90;;;;;;5008203;28;20048;-69
2022/03/03 03:19:42;;;;;;;31.83;19.88;;;1.40;99.90;;;;;;4950269;29;20050;-67
2022/03/03 03:23:01;;;;;;;34.85;19.60;;;1.30;99.90;;;;;;4913508;29;20031;-68
2022/03/03 03:25:27;;;;;;;33.45;20.00;;;1.40;99.90;;;;;;4912401;29;20423;-68
2022/03/03 03:27:53;;;;;;;36.80;21.25;;;1.40;99.90;;;;;;4913331;29;20040;-67
2022/03/03 03:30:55;;;;;;;40.78;20.70;;;1.40;99.90;;;;;;4913104;29;20060;-68
2022/03/03 03:33:27;;;;;;;31.00;18.88;;;1.50;99.90;;;;;;4912551;29;20067;-68
2022/03/03 03:35:59;;;;;;;36.60;20.00;;;1.50;99.90;;;;;;4913081;29;20040;-68
2022/03/03 03:38:25;;;;;;;32.15;18.75;;;1.50;99.90;;;;;;4913104;29;20044;-68
2022/03/03 03:40:51;;;;;;;35.67;19.40;;;1.60;99.90;;;;;;4914910;29;20096;-68
2022/03/03 03:43:17;;;;;;;34.67;20.58;;;1.60;99.90;;;;;;4918853;29;20118;-68
2022/03/03 03:45:54;;;;;;;30.98;18.88;;;1.60;99.90;;;;;;4935487;29;20097;-66
2022/03/03 03:48:23;;;;;;;34.90;19.67;;;1.60;99.90;;;;;;4935530;29;20035;-68
2022/03/03 03:50:57;;;;;;;33.90;20.52;;;1.60;99.90;;;;;;4935218;29;20147;-66
2022/03/03 03:53:57;;;;;;;34.05;20.60;;;1.70;99.90;;;;;;4949961;29;20147;-69
2022/03/03 03:56:42;;;;;;;;;;;;;;;;;;;;;
2022/03/03 03:59:17;;;;;;;39.77;23.43;;;1.70;99.90;;;;;;4974882;28;20039;-68
2022/03/03 04:01:49;;;;;;;33.72;19.88;;;1.80;99.90;;;;;;4975188;28;20272;-69
2022/03/03 04:04:21;;;;;;;36.47;20.63;;;1.80;99.90;;;;;;4974583;28;20110;-68
2022/03/03 04:06:52;;;;;;;32.13;18.48;;;1.80;99.90;;;;;;4974807;28;20034;-68
2022/03/03 04:09:30;;;;;;;36.35;18.77;;;1.80;99.90;;;;;;4946442;28;20062;-68
2022/03/03 04:12:31;;;;;;;32.30;19.92;;;1.90;99.90;;;;;;4975232;28;20054;-66
2022/03/03 04:15:11;;;;;;;28.90;17.63;;;1.80;99.90;;;;;;4960476;28;20100;-68
2022/03/03 04:17:48;;;;;;;31.50;18.10;;;1.90;99.90;;;;;;4975863;28;20030;-69
2022/03/03 04:20:14;;;;;;;36.22;19.05;;;1.90;99.90;;;;;;4974649;28;20432;-68
2022/03/03 04:22:41;;;;;;;33.72;17.92;;;1.90;99.90;;;;;;4976026;28;20027;-69
2022/03/03 04:25:42;;;;;;;36.72;18.70;;;1.90;99.90;;;;;;4975964;28;20480;-68
2022/03/03 04:28:19;;;;;;;31.75;18.08;;;1.90;99.90;;;;;;4974230;28;20043;-68
2022/03/03 04:31:11;;;;;;;30.05;18.17;;;1.90;99.90;;;;;;4975685;28;20056;-68
2022/03/03 04:33:45;;;;;;;34.75;20.17;;;1.90;99.90;;;;;;4974702;28;20129;-69
2022/03/03 04:36:58;;;;;;;29.30;17.50;;;1.90;99.90;;;;;;4975418;28;20113;-68
2022/03/03 04:39:37;;;;;;;32.35;18.48;;;1.90;99.90;;;;;;4977458;28;20042;-68
2022/03/03 04:42:06;;;;;;;33.70;19.58;;;1.90;99.90;;;;;;4992097;28;20512;-67
2022/03/03 04:44:32;;;;;;;33.00;19.52;;;1.90;99.90;;;;;;4992952;28;20046;-68
2022/03/03 04:47:19;;;;;;;30.77;19.98;;;1.90;99.90;;;;;;4992015;28;20041;-66
2022/03/03 04:50:08;;;;;;;34.28;18.48;;;1.80;99.90;;;;;;4976008;28;20566;-65
2022/03/03 04:52:38;;;;;;;36.17;20.63;;;1.70;99.90;;;;;;4991087;28;20065;-68
2022/03/03 04:55:37;;;;;;;37.37;22.10;;;1.70;99.90;;;;;;4988379;28;20061;-67
2022/03/03 04:58:07;;;;;;;29.85;19.25;;;1.70;99.90;;;;;;4972451;28;20093;-68
2022/03/03 05:00:39;;;;;;;35.10;19.88;;;1.70;99.90;;;;;;4971775;28;20078;-66
2022/03/03 05:03:04;;;;;;;35.20;20.88;;;1.60;99.90;;;;;;4972821;28;20027;-68
2022/03/03 05:05:43;;;;;;;33.85;18.80;;;1.60;99.90;;;;;;4972411;28;20055;-68
2022/03/03 05:08:09;;;;;;;38.08;21.13;;;1.60;99.90;;;;;;4972347;28;20501;-68
2022/03/03 05:11:13;;;;;;;37.00;20.80;;;1.60;99.90;;;;;;4972038;28;20078;-66
2022/03/03 05:13:54;;;;;;;36.42;19.20;;;1.60;99.90;;;;;;4958147;28;20116;-67
2022/03/03 05:16:20;;;;;;;38.15;22.02;;;1.60;99.90;;;;;;4971973;28;20421;-68
2022/03/03 05:18:54;;;;;;;38.75;21.10;;;1.60;99.90;;;;;;4956718;28;20039;-68
2022/03/03 05:21:23;;;;;;;39.17;22.55;;;1.50;99.90;;;;;;4956109;28;20065;-68
2022/03/03 05:23:49;;;;;;;35.08;21.63;;;1.50;99.90;;;;;;4955775;28;20027;-68
2022/03/03 05:26:18;;;;;;;38.67;23.00;;;1.50;99.90;;;;;;4973819;28;20043;-68
2022/03/03 05:28:45;;;;;;;35.47;22.05;;;1.50;99.90;;;;;;4972833;28;20037;-68
2022/03/03 05:31:11;;;;;;;39.03;21.45;;;1.50;99.90;;;;;;4973424;28;20059;-68
2022/03/03 05:33:49;;;;;;;36.28;22.63;;;1.50;99.90;;;;;;4972843;28;20026;-69
2022/03/03 05:36:15;;;;;;;45.35;22.15;;;1.70;99.90;;;;;;4968029;28;20023;-67
2022/03/03 05:38:41;;;;;;;40.80;22.00;;;2.00;99.90;;;;;;4953492;28;20035;-67
2022/03/03 05:41:08;;;;;;;43.15;23.38;;;2.20;99.90;;;;;;4937920;28;20035;-67
2022/03/03 05:43:35;;;;;;;39.58;23.73;;;2.40;99.90;;;;;;4956033;28;20050;-68
2022/03/03 05:46:03;;;;;;;38.38;23.00;;;2.80;98.90;;;;;;4937969;29;20577;-67
2022/03/03 05:48:28;;;;;;;38.70;23.50;;;3.00;96.50;;;;;;4954096;28;20086;-68
2022/03/03 05:50:55;;;;;;;39.58;23.00;;;3.10;95.30;;;;;;4954811;28;20031;-69
2022/03/03 05:53:22;;;;;;;39.85;24.67;;;3.50;94.60;;;;;;4955615;28;20019;-69
2022/03/03 05:56:01;;;;;;;43.97;24.70;;;3.30;93.50;;;;;;4953711;28;20074;-67
2022/03/03 05:58:44;;;;;;;44.63;25.92;;;3.70;92.90;;;;;;4954770;28;20020;-67
2022/03/03 06:01:12;;;;;;;39.30;21.17;;;3.90;91.80;;;;;;4955733;28;20380;-67
2022/03/03 06:03:39;;;;;;;36.60;21.90;;;3.90;90.80;;;;;;4954051;28;20078;-67
2022/03/03 06:06:16;;;;;;;35.42;22.35;;;3.20;91.10;;;;;;4954903;28;20049;-70
2022/03/03 06:08:58;;;;;;;44.25;24.35;;;2.90;92.20;;;;;;4954972;28;20046;-67
2022/03/03 06:11:28;;;;;;;36.13;22.35;;;2.70;93.10;;;;;;4954473;28;20051;-67
2022/03/03 06:14:07;;;;;;;40.72;24.15;;;2.70;94.60;;;;;;4953874;28;20031;-67
2022/03/03 06:16:33;;;;;;;35.05;23.20;;;3.60;94.30;;;;;;4955190;28;20114;-67
2022/03/03 06:19:00;;;;;;;39.38;23.20;;;3.90;92.20;;;;;;4954504;28;20027;-67
2022/03/03 06:21:29;;;;;;;34.20;21.02;;;4.10;91.50;;;;;;4953369;28;20065;-67
2022/03/03 06:23:56;;;;;;;33.45;22.52;;;3.90;91.00;;;;;;4954164;28;20046;-67
2022/03/03 06:26:22;;;;;;;35.63;19.48;;;3.70;91.90;;;;;;4954389;28;20042;-67
2022/03/03 06:28:48;;;;;;;33.63;18.67;;;3.40;91.90;;;;;;4954098;28;20027;-67
2022/03/03 06:31:15;;;;;;;34.63;20.70;;;3.40;92.30;;;;;;4954295;28;20039;-67
2022/03/03 06:33:41;;;;;;;34.47;20.52;;;3.40;93.10;;;;;;4954050;28;20370;-67
2022/03/03 06:36:08;;;;;;;38.75;20.65;;;3.30;92.80;;;;;;4954359;28;20429;-67
2022/03/03 06:38:35;;;;;;;41.03;21.38;;;3.40;93.80;;;;;;4953282;28;20497;-67
2022/03/03 06:41:02;;;;;;;34.45;21.20;;;3.30;93.20;;;;;;4952813;28;20181;-67
2022/03/03 06:43:29;;;;;;;34.53;21.23;;;3.40;93.50;;;;;;4953422;28;20030;-68
2022/03/03 06:45:57;;;;;;;32.03;18.38;;;3.50;93.80;;;;;;4953915;28;20067;-67
2022/03/03 06:48:23;;;;;;;38.72;20.25;;;3.60;93.00;;;;;;4953039;28;20039;-67
2022/03/03 06:50:54;;;;;;;41.80;21.98;;;3.60;93.00;;;;;;4954648;28;20120;-66
2022/03/03 06:53:26;;;;;;;36.28;20.08;;;3.60;92.80;;;;;;4959266;28;20402;-67
2022/03/03 06:56:03;;;;;;;35.70;20.88;;;3.80;92.90;;;;;;4973163;28;20392;-67
2022/03/03 06:58:31;;;;;;;29.00;18.95;;;3.90;92.20;;;;;;4956129;28;20035;-67
2022/03/03 07:00:58;;;;;;;38.80;20.42;;;3.80;91.20;;;;;;4973760;28;20026;-67
2022/03/03 07:03:25;;;;;;;35.63;19.63;;;3.90;91.40;;;;;;4972181;28;20034;-67
2022/03/03 07:05:51;;;;;;;31.85;18.48;;;4.20;91.60;;;;;;4988598;28;20082;-67
2022/03/03 07:08:20;;;;;;;34.35;18.85;;;4.30;91.30;;;;;;4973312;28;20015;-67
2022/03/03 07:10:49;;;;;;;32.05;18.13;;;4.20;89.70;;;;;;4972915;28;20039;-69
2022/03/03 07:13:19;;;;;;;32.95;17.80;;;4.30;90.20;;;;;;4972074;28;20019;-67
2022/03/03 07:15:54;;;;;;;31.52;16.67;;;4.40;88.70;;;;;;4973157;28;20039;-67
2022/03/03 07:18:26;;;;;;;26.42;17.00;;;4.50;86.90;;;;;;4973007;28;20038;-67
2022/03/03 07:21:06;;;;;;;30.37;17.67;;;4.70;89.20;;;;;;4972803;28;20129;-67
2022/03/03 07:23:36;;;;;;;26.77;15.85;;;4.80;87.10;;;;;;4972929;28;20269;-67
2022/03/03 07:26:08;;;;;;;28.13;15.43;;;4.90;85.20;;;;;;4973181;28;20019;-67
2022/03/03 07:28:38;;;;;;;27.58;15.90;;;4.90;84.30;;;;;;4973321;28;20031;-67
2022/03/03 07:31:06;;;;;;;29.65;15.35;;;4.90;83.90;;;;;;4972985;28;20039;-67
2022/03/03 07:33:50;;;;;;;28.80;16.33;;;5.00;86.00;;;;;;4971867;28;20026;-67
2022/03/03 07:36:28;;;;;;;26.88;16.08;;;5.00;83.70;;;;;;4972849;28;20465;-68
2022/03/03 07:39:04;;;;;;;23.58;15.25;;;5.00;82.10;;;;;;4988775;28;20046;-68
2022/03/03 07:41:31;;;;;;;27.33;15.60;;;5.10;81.50;;;;;;4973044;28;20038;-68
2022/03/03 07:43:59;;;;;;;25.45;15.35;;;5.20;81.90;;;;;;4972932;28;20023;-67
2022/03/03 07:46:26;;;;;;;28.10;15.07;;;5.30;81.10;;;;;;4971299;28;20527;-67
2022/03/03 07:48:53;;;;;;;24.88;14.77;;;5.20;81.20;;;;;;4972975;28;20437;-67
2022/03/03 07:51:20;;;;;;;30.45;15.82;;;5.20;79.90;;;;;;4972220;28;20045;-68
2022/03/03 07:53:50;;;;;;;26.27;14.57;;;5.30;80.90;;;;;;4972287;28;20031;-68
2022/03/03 07:56:26;;;;;;;26.27;15.55;;;5.20;79.60;;;;;;4971273;28;20520;-67
2022/03/03 07:59:01;;;;;;;31.02;14.88;;;5.40;80.40;;;;;;4970845;28;20485;-67
2022/03/03 08:01:30;;;;;;;27.33;15.15;;;5.40;80.00;;;;;;4971535;28;20077;-67
2022/03/03 08:03:58;;;;;;;26.38;13.23;;;5.50;79.50;;;;;;4973124;28;20023;-67
2022/03/03 08:06:24;;;;;;;27.70;15.25;;;5.60;80.10;;;;;;4972119;28;20030;-67
2022/03/03 08:08:54;;;;;;;24.10;14.38;;;5.80;80.40;;;;;;4971197;28;20030;-67
2022/03/03 08:11:24;;;;;;;25.83;15.82;;;5.90;80.50;;;;;;4974157;28;20046;-67
2022/03/03 08:13:53;;;;;;;29.02;15.88;;;5.80;79.70;;;;;;4971987;28;20049;-67
2022/03/03 08:16:20;;;;;;;26.13;15.20;;;5.90;80.50;;;;;;4971154;28;20045;-67
2022/03/03 08:18:47;;;;;;;26.33;15.05;;;5.70;77.60;;;;;;4972164;28;20500;-67
2022/03/03 08:21:14;;;;;;;29.63;15.88;;;5.80;79.20;;;;;;4972001;28;20440;-67
2022/03/03 08:23:42;;;;;;;23.67;13.93;;;5.60;77.40;;;;;;4970677;28;20378;-67
2022/03/03 08:26:12;;;;;;;23.73;14.43;;;5.70;80.00;;;;;;4973479;28;20044;-67
2022/03/03 08:28:41;;;;;;;23.05;14.13;;;5.90;77.70;;;;;;4975455;28;20481;-67
2022/03/03 08:31:08;;;;;;;24.13;13.73;;;6.10;77.90;;;;;;4975478;28;20045;-67
2022/03/03 08:33:56;;;;;;;24.80;14.45;;;6.20;76.40;;;;;;4976019;28;20108;-68
2022/03/03 08:36:30;;;;;;;26.20;14.32;;;6.30;77.30;;;;;;4976536;28;20034;-68
2022/03/03 08:39:03;;;;;;;27.60;14.60;;;6.40;75.00;;;;;;4990602;28;20023;-68
2022/03/03 08:41:32;;;;;;;27.48;15.98;;;6.50;76.70;;;;;;4974388;28;20027;-68
2022/03/03 08:44:01;;;;;;;23.92;14.00;;;6.60;76.00;;;;;;4975071;28;20450;-68
2022/03/03 08:46:31;;;;;;;26.00;14.45;;;6.80;74.00;;;;;;4974499;28;20070;-68
2022/03/03 08:49:00;;;;;;;26.92;16.77;;;6.60;71.90;;;;;;4973985;28;20027;-68
2022/03/03 08:51:27;;;;;;;24.45;15.73;;;6.50;72.80;;;;;;4974088;28;20030;-68
2022/03/03 08:53:53;;;;;;;25.23;15.25;;;6.60;73.40;;;;;;4973802;28;20030;-67
2022/03/03 08:56:19;;;;;;;24.85;14.50;;;6.80;72.00;;;;;;4974895;28;20027;-68
2022/03/03 08:58:46;;;;;;;22.42;14.18;;;6.80;71.30;;;;;;4973182;28;20164;-68
2022/03/03 09:01:12;;;;;;;30.08;13.20;;;7.00;70.00;;;;;;4973967;28;20046;-68
2022/03/03 09:03:40;;;;;;;26.83;15.35;;;6.80;68.70;;;;;;4974297;28;20027;-67
2022/03/03 09:06:06;;;;;;;26.17;15.25;;;6.80;71.50;;;;;;4973267;28;20093;-68
2022/03/03 09:08:32;;;;;;;26.58;13.30;;;7.00;71.10;;;;;;4974748;28;20380;-68
2022/03/03 09:10:59;;;;;;;27.83;15.45;;;7.00;69.50;;;;;;4974136;28;20499;-68
2022/03/03 09:13:25;;;;;;;27.90;16.15;;;7.20;70.40;;;;;;4973289;28;20037;-68
2022/03/03 09:15:52;;;;;;;24.50;14.00;;;7.50;71.20;;;;;;4974631;28;20035;-68
2022/03/03 09:18:21;;;;;;;24.95;12.73;;;7.40;68.90;;;;;;4974547;28;20022;-68
2022/03/03 09:20:47;;;;;;;26.63;13.52;;;7.50;69.10;;;;;;4973068;28;20038;-68
2022/03/03 09:23:13;;;;;;;24.67;13.43;;;7.50;69.50;;;;;;4975580;28;20102;-68
2022/03/03 09:25:43;;;;;;;23.38;13.60;;;7.40;69.20;;;;;;4973126;28;20049;-68
2022/03/03 09:28:09;;;;;;;26.40;14.07;;;7.40;69.20;;;;;;4989572;28;20030;-68
2022/03/03 09:30:36;;;;;;;25.05;13.57;;;7.50;69.80;;;;;;4973574;28;20035;-68
2022/03/03 09:33:02;;;;;;;27.42;14.60;;;7.50;69.00;;;;;;4974391;28;20031;-68
2022/03/03 09:35:29;;;;;;;19.85;11.27;;;7.70;69.00;;;;;;4974215;28;20061;-68
2022/03/03 09:37:55;;;;;;;20.85;11.73;;;7.80;67.90;;;;;;4972623;28;20114;-68
2022/03/03 09:40:21;;;;;;;20.90;10.77;;;7.90;67.30;;;;;;4975396;28;20062;-68
2022/03/03 09:43:00;;;;;;;24.77;13.43;;;7.80;67.50;;;;;;4972927;28;20026;-68
2022/03/03 09:45:27;;;;;;;24.20;14.27;;;7.90;67.20;;;;;;4974080;28;20080;-68
2022/03/03 09:47:54;;;;;;;22.58;12.15;;;8.00;67.10;;;;;;4973571;28;20481;-68
2022/03/03 09:50:25;;;;;;;20.20;11.75;;;8.20;67.40;;;;;;4972782;28;20501;-68
2022/03/03 09:52:53;;;;;;;20.13;11.75;;;7.80;66.20;;;;;;4956379;28;20053;-69
2022/03/03 09:55:20;;;;;;;22.80;11.88;;;7.90;66.50;;;;;;4973200;28;20088;-68
2022/03/03 09:57:49;;;;;;;22.00;12.43;;;8.00;67.70;;;;;;4972541;28;20454;-68
2022/03/03 10:00:16;;;;;;;22.60;13.27;;;7.90;65.70;;;;;;4973054;28;20033;-68
2022/03/03 10:02:58;;;;;;;25.45;13.75;;;8.20;68.50;;;;;;4973814;28;20380;-68
2022/03/03 10:05:34;;;;;;;23.00;13.57;;;8.20;65.90;;;;;;4974269;28;20030;-69
2022/03/03 10:08:01;;;;;;;24.35;12.77;;;8.10;66.30;;;;;;4974201;28;20296;-68
2022/03/03 10:10:27;;;;;;;23.73;14.07;;;8.30;67.40;;;;;;4973879;28;20035;-68
2022/03/03 10:12:56;;;;;;;21.15;12.05;;;8.40;65.40;;;;;;4973787;28;20027;-68
2022/03/03 10:15:33;;;;;;;22.90;11.98;;;8.30;66.20;;;;;;4973515;28;20050;-68
2022/03/03 10:18:05;;;;;;;22.52;11.88;;;8.50;65.30;;;;;;4973646;28;20030;-68
2022/03/03 10:21:00;;;;;;;20.58;11.50;;;8.50;65.00;;;;;;4972673;28;20030;-68
2022/03/03 10:23:31;;;;;;;19.90;11.40;;;8.30;63.50;;;;;;4973998;28;20054;-69
2022/03/03 10:25:58;;;;;;;20.60;11.57;;;8.30;63.10;;;;;;4973983;28;20066;-69
2022/03/03 10:28:27;;;;;;;23.52;12.40;;;8.30;63.00;;;;;;4973221;28;20027;-68
2022/03/03 10:31:10;;;;;;;24.30;12.10;;;8.40;65.30;;;;;;4972432;28;20559;-68
2022/03/03 10:33:44;;;;;;;19.63;11.90;;;8.50;64.80;;;;;;4972845;28;20074;-68
2022/03/03 10:36:11;;;;;;;22.67;13.00;;;8.60;65.60;;;;;;4972819;28;20082;-68
2022/03/03 10:39:06;;;;;;;20.48;10.57;;;8.60;64.20;;;;;;4973855;28;20027;-69
2022/03/03 10:41:43;;;;;;;25.40;10.93;;;8.50;62.90;;;;;;4973920;28;20047;-69
2022/03/03 10:44:14;;;;;;;23.00;12.10;;;8.40;63.30;;;;;;4988248;28;20037;-69
2022/03/03 10:47:13;;;;;;;21.75;13.02;;;8.60;64.20;;;;;;4971903;28;20073;-68
2022/03/03 10:49:42;;;;;;;23.90;12.70;;;8.60;64.00;;;;;;4972766;28;20154;-68
2022/03/03 10:52:23;;;;;;;21.20;12.88;;;8.60;62.80;;;;;;4971918;28;20031;-68
2022/03/03 10:54:57;;;;;;;22.85;12.63;;;8.50;63.00;;;;;;4972836;28;20023;-68
2022/03/03 10:57:51;;;;;;;19.27;11.82;;;8.80;64.80;;;;;;4974778;28;20373;-68
2022/03/03 11:00:23;;;;;;;21.77;12.20;;;8.60;64.20;;;;;;4975041;28;20023;-68
2022/03/03 11:02:54;;;;;;;22.23;11.25;;;8.60;64.20;;;;;;4972398;28;20035;-68
2022/03/03 11:05:22;;;;;;;19.73;11.77;;;8.60;62.80;;;;;;4973298;28;20519;-68
2022/03/03 11:07:49;;;;;;;24.25;11.77;;;8.80;65.30;;;;;;4973334;28;20042;-68
2022/03/03 11:10:17;;;;;;;20.02;11.65;;;8.80;64.60;;;;;;4973308;28;20077;-68
2022/03/03 11:12:44;;;;;;;21.63;12.00;;;8.80;63.60;;;;;;4973006;28;20038;-68
2022/03/03 11:15:12;;;;;;;19.40;11.85;;;8.80;64.30;;;;;;4973086;28;20047;-68
2022/03/03 11:17:39;;;;;;;21.23;11.60;;;8.80;63.50;;;;;;4973292;28;20031;-68
2022/03/03 11:20:09;;;;;;;27.73;13.30;;;8.90;62.70;;;;;;4972489;28;20050;-68
2022/03/03 11:22:35;;;;;;;22.42;12.48;;;8.90;63.50;;;;;;4973242;28;20074;-68
2022/03/03 11:25:08;;;;;;;20.73;12.38;;;9.00;64.70;;;;;;4972203;28;20027;-68
2022/03/03 11:27:35;;;;;;;;;;;8.90;64.20;;;;;;4988468;28;20473;-68
2022/03/03 11:30:27;;;;;;;25.60;13.18;;;8.90;63.10;;;;;;4972443;28;19921;-68
2022/03/03 11:33:19;;;;;;;20.60;12.00;;;8.90;63.70;;;;;;4972848;28;20031;-68
2022/03/03 11:36:00;;;;;;;21.73;10.27;;;9.10;63.20;;;;;;4977531;28;20379;-68
2022/03/03 11:38:42;;;;;;;20.90;11.05;;;8.90;62.30;;;;;;4972527;28;20033;-69
2022/03/03 11:41:08;;;;;;;24.92;13.00;;;8.80;63.10;;;;;;4955675;28;20047;-68
2022/03/03 11:43:47;;;;;;;21.25;12.35;;;9.00;64.20;;;;;;4972388;28;20056;-69
2022/03/03 11:46:34;;;;;;;23.65;12.18;;;8.80;61.10;;;;;;4971266;28;20158;-69
2022/03/03 11:49:17;;;;;;;19.38;10.30;;;9.00;63.30;;;;;;4973581;28;20109;-68
2022/03/03 11:51:43;;;;;;;22.17;11.43;;;9.10;63.00;;;;;;4972655;28;20035;-68
2022/03/03 11:54:11;;;;;;;20.00;10.60;;;9.00;62.20;;;;;;4972402;28;20053;-68
2022/03/03 11:57:04;;;;;;;22.20;11.75;;;9.00;62.70;;;;;;4972220;28;20023;-68
2022/03/03 11:59:35;;;;;;;22.67;11.35;;;9.00;62.40;;;;;;4971123;28;20035;-68
2022/03/03 12:02:01;;;;;;;22.40;11.48;;;9.20;63.60;;;;;;4958747;28;20038;-68
2022/03/03 12:04:27;;;;;;;21.60;11.10;;;9.10;61.80;;;;;;4975427;28;20042;-68
2022/03/03 12:06:56;;;;;;;22.85;11.45;;;8.80;62.50;;;;;;4976066;28;20031;-68
2022/03/03 12:09:32;;;;;;;18.65;10.65;;;8.90;62.00;;;;;;4976072;28;20500;-68
2022/03/03 12:12:17;;;;;;;20.30;11.15;;;9.10;63.30;;;;;;4976186;28;20026;-68
2022/03/03 12:14:58;;;;;;;20.85;11.30;;;9.00;61.80;;;;;;4976060;28;20022;-68
2022/03/03 12:17:38;;;;;;;21.00;11.38;;;9.10;64.00;;;;;;4976283;28;20023;-68
2022/03/03 12:20:23;;;;;;;21.15;12.15;;;9.10;61.90;;;;;;4974361;28;20054;-68
2022/03/03 12:23:08;;;;;;;18.33;10.77;;;9.10;62.70;;;;;;4975603;28;20031;-68
2022/03/03 12:25:55;;;;;;;20.27;12.07;;;9.00;62.40;;;;;;4974667;28;20022;-68
2022/03/03 12:28:25;;;;;;;18.25;10.93;;;8.70;59.40;;;;;;4974381;28;20475;-69
2022/03/03 12:30:53;;;;;;;21.90;11.77;;;8.70;60.90;;;;;;4976878;28;20042;-68
2022/03/03 12:33:31;;;;;;;22.50;11.88;;;8.80;61.80;;;;;;4974885;28;20026;-68
2022/03/03 12:36:02;;;;;;;22.20;11.13;;;9.00;63.50;;;;;;4975448;28;20143;-69
2022/03/03 12:38:28;;;;;;;20.67;10.73;;;9.00;61.30;;;;;;4975631;28;20027;-68
2022/03/03 12:40:55;;;;;;;20.08;11.70;;;9.00;61.50;;;;;;4974670;28;20049;-69
2022/03/03 12:43:21;;;;;;;18.85;11.88;;;9.10;62.90;;;;;;4972320;28;20061;-68
2022/03/03 12:45:49;;;;;;;19.90;11.80;;;8.90;60.10;;;;;;4975096;28;20055;-68
2022/03/03 12:48:30;;;;;;;19.65;11.25;;;8.80;61.30;;;;;;4975250;28;20107;-68
2022/03/03 12:51:04;;;;;;;19.08;11.23;;;9.00;61.90;;;;;;4974887;28;20481;-68
2022/03/03 12:53:36;;;;;;;19.25;10.30;;;9.10;61.90;;;;;;4975406;28;20058;-68
2022/03/03 12:56:03;;;;;;;18.30;10.30;;;9.20;61.30;;;;;;4958231;28;20114;-68
2022/03/03 12:58:32;;;;;;;23.73;12.02;;;9.30;62.60;;;;;;4975646;28;20018;-68
2022/03/03 13:00:58;;;;;;;21.52;11.40;;;9.20;60.20;;;;;;4973333;28;20022;-68
2022/03/03 13:03:32;;;;;;;19.95;9.95;;;9.10;60.40;;;;;;4974794;28;20105;-67
2022/03/03 13:06:00;;;;;;;20.35;11.60;;;9.20;60.40;;;;;;4975222;28;20019;-67
2022/03/03 13:08:35;;;;;;;21.10;10.50;;;9.10;60.40;;;;;;4973311;28;20023;-67
2022/03/03 13:11:04;;;;;;;20.08;10.73;;;8.90;58.10;;;;;;4957621;28;20121;-67
2022/03/03 13:13:49;;;;;;;24.05;11.25;;;9.10;60.60;;;;;;4972251;28;20061;-67
2022/03/03 13:16:18;;;;;;;21.35;10.98;;;9.10;60.90;;;;;;4938584;28;20497;-68
2022/03/03 13:18:45;;;;;;;17.40;9.93;;;9.00;59.70;;;;;;4954200;29;20426;-68
2022/03/03 13:21:14;;;;;;;18.90;9.88;;;8.80;59.30;;;;;;4968272;28;20085;-67